Torrance, CA (90507)

8:24 PM PDT on September 01, 2014 (GMT -0700)
American Honda Motor Co., Inc. | Change Station
CLOSE
Current Station
Personal Weather Station
Location: Torrance, CA
Elevation: 75 ft
Nearby Weather Stations

Elev 75 ft 33.84 °N, 118.31 °W | Updated 10 seconds ago

Partly Cloudy
Partly Cloudy
70.7 °F
Feels Like 70.7 °F
N
4.0
Wind Variable Wind from West
Gusts 6.0 mph

Today
High -- | Low -- °F
--% Chance of Precip.
Yesterday
High -- | Low -- °F
Precip. -- in
6:27 AM 7:18 PM
Waxing Crescent, 47% visible
Pressure 29.79 in
Visibility 10.0 miles
Clouds Few 1000 ft
Dew Point 67 °F
Humidity 87%
Rainfall 0.00 in
Snow Depth Not available.
UV 0 out of 12
Pollen 7.80 out of 12
Ozone Good
Flu Activity Not available.
METAR KTOA 020247Z 30010KT 10SM FEW010 23/20 A2979 RMK LAST

More Conditions Fewer Conditions

Pressure 29.79 in
Visibility 10.0 miles
Clouds Few 1000 ft
Dew Point 67 °F
Humidity 87%
Rainfall 0.00 in
Snow Depth Not available.
UV 0 out of 12
Pollen 7.80 out of 12
Ozone Good
Flu Activity Not available.
METAR KTOA 020247Z 30010KT 10SM FEW010 23/20 A2979 RMK LAST

More Conditions Fewer Conditions

10-Day Weather Forecast

Almanac

Astronomy

Sep. 01, 2014 Rise Set
Actual Time 6:27 AM PDT 7:18 PM PDT
Civil Twilight 6:01 AM PDT 7:44 PM PDT
Nautical Twilight 5:31 AM PDT 8:14 PM PDT
Astronomical Twilight 5:00 AM PDT 8:45 PM PDT
Moon 12:58 PM PDT (9/1) 11:43 PM PDT (9/1)
Length of Visible Light 13h 42m
Length of Day
12h 51m
Tomorrow will be 2m 1s shorter.
Waxing Crescent, 47% of the Moon is Illuminated
Today
Waxing Crescent
Sep 2
First Quarter
Sep 8
Full
Sep 15
Last Quarter
Sep 24
New

Today's Extremes

State Highs State Lows

Community

WunderPhotos

Upload Photos

1,749,546 photos uploaded!

WunderBlogs® & News

Nearby

Air Quality

  Air Quality AQ Index Pollutant
Yesterday Good
OZONE
Current Good
OZONE
Tuesday Good
PM10
Tuesday Good
OZONE
Tuesday Good
CO
Tuesday Good
NO2

Snow Depth

Station Depth Elevation
Leavitt Meadows 0 in 7200 ft
Summit Meadow 0 in 9122 ft
Rubicon #2 0 in 7500 ft
CSS Lab 0 in 6900 ft
Adin Mountain 1 in 6200 ft

Earthquake Activity

City Distance Mag. Time & Date
Malibu, California 45 miles 2.5 8:11 AM PDT
2014-08-30
Minimum magnitude displayed is 2.5.

Coastal Water Temperatures

Place Temperature
Santa Monica Pier 73.0 °F
Los Angeles, CA 71.1 °F
La Jolla, CA 73.0 °F

Nearby Weather Stations